Time;durP1;ratioP1;P1;durP2;ratioP2;P2;SDS_P1;SDS_P2;PMS_P1;PMS_P2;Temp;Humidity;BMP_temperature;BMP_pressure;BME280_temperature;BME280_humidity;BME280_pressure;Samples;Min_cycle;Max_cycle;Signal;HPM_P1;HPM_P2
2024/02/12 00:01:45;;;;;;;;;0.00;0.00;;;;;11.07;100.00;99939.34;5055038;28;45360;-80
2024/02/12 00:04:11;;;;;;;;;0.00;0.00;;;;;11.04;100.00;99932.53;5054488;28;45695;-80
2024/02/12 00:06:37;;;;;;;;;0.00;0.00;;;;;11.00;100.00;99931.81;5055866;28;46211;-80
2024/02/12 00:09:03;;;;;;;;;0.00;0.00;;;;;10.99;100.00;99929.25;5058129;28;45335;-80
2024/02/12 00:11:29;;;;;;;;;0.00;0.00;;;;;10.96;100.00;99929.41;5056368;28;45442;-80
2024/02/12 00:13:56;;;;;;;;;0.00;0.00;;;;;10.93;100.00;99930.38;5056232;28;45406;-80
2024/02/12 00:16:22;;;;;;;;;0.00;0.00;;;;;10.85;100.00;99935.09;5055955;28;46366;-80
2024/02/12 00:18:47;;;;;;;;;0.00;0.00;;;;;10.83;100.00;99942.94;5058358;28;45597;-80
2024/02/12 00:21:12;;;;;;;;;0.00;0.00;;;;;10.82;100.00;99940.41;5058722;28;69141;-80
2024/02/12 00:23:37;;;;;;;;;0.00;0.00;;;;;10.81;100.00;99936.97;5058856;28;45565;-80
2024/02/12 00:26:05;;;;;;;;;0.00;0.00;;;;;10.79;100.00;99943.13;5056997;28;45369;-81
2024/02/12 00:28:32;;;;;;;;;0.00;0.00;;;;;10.74;100.00;99939.91;5055487;28;45316;-80
2024/02/12 00:30:58;;;;;;;;;0.00;0.00;;;;;10.71;100.00;99942.63;5038495;28;45287;-81
2024/02/12 00:33:24;;;;;;;;;0.00;0.00;;;;;10.69;100.00;99945.28;5038244;28;45338;-80
2024/02/12 00:35:49;;;;;;;;;0.00;0.00;;;;;10.69;100.00;99945.28;5038118;28;47116;-80
2024/02/12 00:38:14;;;;;;;;;0.33;0.00;;;;;10.71;100.00;99948.66;5038172;28;45380;-80
2024/02/12 00:40:43;;;;;;;;;0.00;0.00;;;;;10.68;100.00;99950.56;5037191;28;65797;-80
2024/02/12 00:43:08;;;;;;;;;0.00;0.00;;;;;10.66;100.00;99948.03;5036991;28;45369;-80
2024/02/12 00:45:33;;;;;;;;;0.00;0.00;;;;;10.63;100.00;99949.00;5037826;28;46392;-81
2024/02/12 00:47:59;;;;;;;;;0.00;0.00;;;;;10.62;100.00;99956.84;5037474;28;46205;-80
2024/02/12 00:50:25;;;;;;;;;0.00;0.00;;;;;10.62;100.00;99951.66;5052027;28;45321;-80
2024/02/12 00:52:52;;;;;;;;;0.00;0.00;;;;;10.60;100.00;99958.69;5058053;28;45487;-80
2024/02/12 00:55:18;;;;;;;;;0.00;0.00;;;;;10.60;100.00;99961.28;5058011;28;46389;-80
2024/02/12 00:57:43;;;;;;;;;0.00;0.00;;;;;10.59;100.00;99957.84;5057941;28;45513;-80
2024/02/12 01:00:14;;;;;;;;;0.00;0.00;;;;;10.63;100.00;99963.78;5056736;28;69468;-80
2024/02/12 01:02:40;;;;;;;;;0.00;0.00;;;;;10.63;100.00;99958.56;5056286;28;45431;-80
2024/02/12 01:05:08;;;;;;;;;0.00;0.00;;;;;10.63;100.00;99956.81;5057690;28;45362;-80
2024/02/12 01:07:34;;;;;;;;;0.00;0.00;;;;;10.64;100.00;99962.84;5057404;28;45355;-80
2024/02/12 01:10:01;;;;;;;;;0.00;0.00;;;;;10.64;100.00;99957.63;5057885;28;45320;-80
2024/02/12 01:12:26;;;;;;;;;0.00;0.00;;;;;10.64;100.00;99966.31;5056250;28;45457;-81
2024/02/12 01:14:53;;;;;;;;;0.00;0.00;;;;;10.61;100.00;99969.03;5056538;28;71486;-80
2024/02/12 01:17:19;;;;;;;;;0.00;0.00;;;;;10.62;100.00;99981.16;5056994;28;45295;-80
2024/02/12 01:19:45;;;;;;;;;0.00;0.00;;;;;10.62;100.00;99978.53;5056471;28;45327;-80
2024/02/12 01:22:10;;;;;;;;;0.00;0.00;;;;;10.61;100.00;99978.59;5057461;28;45521;-80
2024/02/12 01:25:04;;;;;;;;;0.00;0.00;;;;;10.60;100.00;99987.31;5113982;27;45456;-80
2024/02/12 01:27:29;;;;;;;;;0.00;0.00;;;;;10.58;100.00;99987.38;5093431;27;45439;-81
2024/02/12 01:29:55;;;;;;;;;0.00;0.00;;;;;10.55;100.00;99992.72;5092354;27;67423;-81
2024/02/12 01:32:20;;;;;;;;;0.00;0.00;;;;;10.53;100.00;99997.13;5092066;27;71203;-81
2024/02/12 01:34:45;;;;;;;;;0.00;0.00;;;;;10.48;100.00;100006.88;5092454;27;75425;-81
2024/02/12 01:37:11;;;;;;;;;0.00;0.00;;;;;10.48;100.00;100001.69;5093158;27;45285;-81
2024/02/12 01:39:36;;;;;;;;;0.00;0.00;;;;;10.46;100.00;100004.34;5093612;27;45292;-81
2024/02/12 01:42:09;;;;;;;;;0.00;0.00;;;;;10.45;100.00;100004.38;5093441;27;45361;-81
2024/02/12 01:44:34;;;;;;;;;0.00;0.00;;;;;10.45;100.00;100001.78;5093447;27;46716;-81
2024/02/12 01:46:59;;;;;;;;;0.00;0.00;;;;;10.44;100.00;100005.31;5093941;27;73031;-81
2024/02/12 01:49:26;;;;;;;;;0.00;0.00;;;;;10.45;100.00;100007.00;5093037;27;68013;-81
2024/02/12 01:51:52;;;;;;;;;0.00;0.00;;;;;10.47;100.00;100010.38;5092098;27;45483;-81
2024/02/12 01:54:18;;;;;;;;;0.00;0.00;;;;;10.46;100.00;100000.91;5093067;27;46556;-81
2024/02/12 01:56:45;;;;;;;;;0.00;0.00;;;;;10.48;100.00;100012.09;5093368;27;45402;-81
2024/02/12 01:59:16;;;;;;;;;0.00;0.00;;;;;10.49;100.00;100010.31;5092045;27;45428;-81
2024/02/12 02:01:43;;;;;;;;;0.00;0.00;;;;;10.51;100.00;99998.97;5092818;27;45320;-80
2024/02/12 02:04:09;;;;;;;;;0.00;0.00;;;;;10.54;100.00;100003.19;5092882;27;45390;-81
2024/02/12 02:06:34;;;;;;;;;0.00;0.00;;;;;10.58;100.00;100004.75;5092528;27;45411;-80
2024/02/12 02:09:00;;;;;;;;;0.00;0.00;;;;;10.59;100.00;100011.66;5092133;27;69325;-80
2024/02/12 02:11:26;;;;;;;;;0.00;0.00;;;;;10.59;100.00;100024.66;5093172;27;45411;-80
2024/02/12 02:13:52;;;;;;;;;0.00;0.00;;;;;10.57;100.00;100024.72;5092646;27;47128;-81
2024/02/12 02:16:19;;;;;;;;;0.00;0.00;;;;;10.60;100.00;100019.38;5091209;27;45288;-80
2024/02/12 02:18:50;;;;;;;;;0.00;0.00;;;;;10.62;100.00;100025.41;5092422;27;45345;-81
2024/02/12 02:21:21;;;;;;;;;0.00;0.00;;;;;10.62;100.00;100028.00;5091521;27;45367;-81
2024/02/12 02:23:46;;;;;;;;;0.00;0.00;;;;;10.59;100.00;100025.50;5092132;27;46169;-80
2024/02/12 02:26:12;;;;;;;;;0.00;0.00;;;;;10.68;100.00;100020.81;5092595;27;45238;-80
2024/02/12 02:28:37;;;;;;;;;0.00;0.00;;;;;10.68;100.00;100020.81;5091512;27;69111;-81
2024/02/12 02:31:04;;;;;;;;;0.00;0.00;;;;;10.69;100.00;100020.78;5092059;27;55682;-81
2024/02/12 02:33:29;;;;;;;;;0.00;0.00;;;;;10.67;100.00;100016.56;5092444;27;45319;-81
2024/02/12 02:35:55;;;;;;;;;0.00;0.00;;;;;10.64;100.00;100012.28;5080027;27;51829;-81
2024/02/12 02:38:20;;;;;;;;;0.00;0.00;;;;;10.55;100.00;100017.88;5078952;27;45476;-81
2024/02/12 02:40:45;;;;;;;;;0.00;0.00;;;;;10.54;100.00;100013.59;5078911;27;45367;-81
2024/02/12 02:43:15;;;;;;;;;0.00;0.00;;;;;10.51;100.00;100014.56;5077923;27;57839;-80
2024/02/12 02:45:40;;;;;;;;;0.00;0.00;;;;;10.49;100.00;100018.13;5077533;28;45338;-81
2024/02/12 02:48:06;;;;;;;;;0.00;0.00;;;;;10.53;100.00;100011.88;5077798;28;69348;-80
2024/02/12 02:50:32;;;;;;;;;0.00;0.00;;;;;10.52;100.00;100015.41;5077300;28;45375;-80
2024/02/12 02:53:01;;;;;;;;;0.00;0.00;;;;;10.49;100.00;100011.16;5077259;28;45372;-81
2024/02/12 02:55:27;;;;;;;;;0.00;0.00;;;;;10.49;100.00;100012.91;5078519;27;45439;-81
2024/02/12 02:57:52;;;;;;;;;0.00;0.00;;;;;10.45;100.00;100007.81;5078313;28;45392;-80
2024/02/12 03:00:18;;;;;;;;;0.00;0.00;;;;;10.44;100.00;100002.72;5077451;28;45449;-81
2024/02/12 03:02:44;;;;;;;;;0.00;0.00;;;;;10.48;100.00;100004.28;5078107;28;48028;-80
2024/02/12 03:05:11;;;;;;;;;0.00;0.00;;;;;10.48;100.00;100001.69;5078238;27;45487;-81
2024/02/12 03:07:39;;;;;;;;;0.00;0.00;;;;;10.48;100.00;100004.28;5078439;27;45383;-81
2024/02/12 03:10:05;;;;;;;;;0.00;0.00;;;;;10.50;100.00;100012.88;5078345;28;45293;-80
2024/02/12 03:12:30;;;;;;;;;0.00;0.00;;;;;10.52;100.00;100013.66;5077896;27;46677;-81
2024/02/12 03:14:57;;;;;;;;;0.00;0.00;;;;;10.55;100.00;100008.34;5078156;27;45275;-80
2024/02/12 03:17:22;;;;;;;;;0.00;0.00;;;;;10.60;100.00;100008.97;5078222;27;45488;-81
2024/02/12 03:19:47;;;;;;;;;0.00;0.00;;;;;10.65;100.00;100008.78;5078269;28;45288;-80
2024/02/12 03:22:14;;;;;;;;;0.00;0.00;;;;;10.69;100.00;100010.34;5078394;27;75481;-81
2024/02/12 03:24:39;;;;;;;;;0.00;0.00;;;;;10.72;100.00;100002.44;5078268;27;45254;-81
2024/02/12 03:27:07;;;;;;;;;0.00;0.00;;;;;10.74;100.00;100010.19;5076892;28;45503;-81
2024/02/12 03:29:32;;;;;;;;;0.00;0.00;;;;;10.74;100.00;100005.81;5078150;28;45321;-81
2024/02/12 03:31:58;;;;;;;;;0.00;0.00;;;;;10.78;100.00;100011.75;5078012;27;47020;-80
2024/02/12 03:34:25;;;;;;;;;0.00;0.00;;;;;10.79;100.00;100014.28;5078167;28;45553;-81
2024/02/12 03:36:50;;;;;;;;;0.00;0.00;;;;;10.84;100.00;100016.69;5078153;28;45482;-80
2024/02/12 03:39:16;;;;;;;;;0.00;0.00;;;;;10.84;100.00;100021.91;5077084;27;70233;-81
2024/02/12 03:41:41;;;;;;;;;0.00;0.00;;;;;10.85;100.00;100015.78;5077470;27;46664;-80
2024/02/12 03:44:09;;;;;;;;;0.00;0.00;;;;;10.89;100.00;100022.56;5076780;28;73311;-81
2024/02/12 03:46:39;;;;;;;;;0.00;0.00;;;;;10.90;100.00;100024.25;5076650;27;45294;-81
2024/02/12 04:00:09;;;;;;;;;0.00;0.00;;;;;10.95;100.00;100029.25;5077720;28;45173;-80
2024/02/12 04:02:35;;;;;;;;;0.00;0.00;;;;;10.97;100.00;100028.28;5077383;27;46366;-81
2024/02/12 04:05:01;;;;;;;;;0.00;0.00;;;;;10.98;100.00;100029.16;5076269;28;45313;-81
2024/02/12 04:07:27;;;;;;;;;0.00;0.00;;;;;10.99;100.00;100031.66;5077529;28;45361;-81
2024/02/12 04:09:53;;;;;;;;;0.00;0.00;;;;;11.02;100.00;100034.16;5076399;28;45289;-81
2024/02/12 04:12:18;;;;;;;;;0.00;0.00;;;;;11.02;100.00;100034.16;5077099;27;45842;-81
2024/02/12 04:14:43;;;;;;;;;0.00;0.00;;;;;11.03;100.00;100037.59;5076155;28;45453;-81
2024/02/12 04:17:10;;;;;;;;;0.00;0.00;;;;;11.05;100.00;100038.41;5077365;28;45901;-81
2024/02/12 04:19:36;;;;;;;;;0.00;0.00;;;;;11.06;100.00;100036.63;5076254;28;45446;-81
2024/02/12 04:22:04;;;;;;;;;0.00;0.00;;;;;11.04;100.00;100034.94;5075944;28;45421;-80
2024/02/12 04:24:34;;;;;;;;;0.00;0.00;;;;;11.06;100.00;100034.88;5076396;27;45469;-81
2024/02/12 04:26:59;;;;;;;;;0.00;0.00;;;;;11.07;100.00;100035.72;5077376;27;45389;-81
2024/02/12 04:29:26;;;;;;;;;0.00;0.00;;;;;11.08;100.00;100040.03;5077078;28;45509;-80
2024/02/12 04:31:52;;;;;;;;;0.00;0.00;;;;;11.07;100.00;100039.19;5075797;28;47968;-81
2024/02/12 04:34:18;;;;;;;;;0.00;0.00;;;;;11.08;100.00;100045.22;5077217;27;45352;-81
2024/02/12 04:36:44;;;;;;;;;0.00;0.00;;;;;11.09;100.00;100039.09;5077281;27;45324;-81
2024/02/12 04:39:13;;;;;;;;;0.00;0.00;;;;;11.13;100.00;100038.91;5075508;28;45420;-81
2024/02/12 04:41:40;;;;;;;;;0.00;0.00;;;;;11.09;100.00;100039.09;5075572;28;45282;-81
2024/02/12 04:44:05;;;;;;;;;0.00;0.00;;;;;11.07;100.00;100036.56;5075511;28;45377;-81
2024/02/12 04:46:31;;;;;;;;;0.00;0.00;;;;;11.07;100.00;100036.56;5076235;27;61330;-81
2024/02/12 04:48:58;;;;;;;;;0.00;0.00;;;;;11.10;100.00;100044.25;5077051;27;45413;-81
2024/02/12 04:51:24;;;;;;;;;0.00;0.00;;;;;11.10;100.00;100046.84;5076571;27;47356;-81
2024/02/12 04:53:49;;;;;;;;;0.00;0.00;;;;;11.10;100.00;100049.44;5075102;28;45470;-81
2024/02/12 04:56:15;;;;;;;;;0.00;0.00;;;;;10.87;100.00;100042.59;5075658;27;67253;-81
2024/02/12 04:58:40;;;;;;;;;0.00;0.00;;;;;10.83;100.00;100044.50;5076791;27;45379;-81
2024/02/12 05:01:07;;;;;;;;;0.00;0.00;;;;;10.83;100.00;100054.06;5079135;27;62642;-81
2024/02/12 05:03:33;;;;;;;;;0.00;0.00;;;;;10.87;100.00;100049.56;5076846;27;45538;-81
2024/02/12 05:05:58;;;;;;;;;0.00;0.00;;;;;10.80;100.00;100052.41;5076879;27;45468;-81
2024/02/12 05:08:24;;;;;;;;;0.00;0.00;;;;;10.77;100.00;100052.56;5075493;27;69507;-81
2024/02/12 05:10:51;;;;;;;;;0.00;0.00;;;;;10.72;100.00;100051.06;5076537;27;45575;-81
2024/02/12 05:13:17;;;;;;;;;0.00;0.00;;;;;10.72;100.00;100056.25;5076325;27;45435;-81
2024/02/12 05:15:42;;;;;;;;;0.00;0.00;;;;;10.68;100.00;100050.31;5076461;27;45299;-81
2024/02/12 05:22:32;;;;;;;;;0.00;0.00;;;;;10.64;100.00;100052.19;5076261;27;45349;-81
2024/02/12 05:23:37;;;;;;;;;0.00;0.00;;;;;10.61;100.00;100049.72;5075502;28;45461;-81
2024/02/12 05:26:04;;;;;;;;;0.00;0.00;;;;;10.61;100.00;100056.69;5075397;28;69412;-80
2024/02/12 05:28:30;;;;;;;;;0.00;0.00;;;;;10.62;100.00;100054.03;5075371;28;45327;-81
2024/02/12 05:30:55;;;;;;;;;0.00;0.00;;;;;10.65;100.00;100053.03;5076118;28;45317;-80
2024/02/12 05:33:20;;;;;;;;;0.00;0.00;;;;;10.63;100.00;100055.69;5076377;28;45260;-81
2024/02/12 05:35:46;;;;;;;;;0.00;0.00;;;;;10.66;100.00;100049.53;5075044;27;69319;-80
2024/02/12 05:38:11;;;;;;;;;0.00;0.00;;;;;10.66;100.00;100054.75;5074943;27;70292;-81
2024/02/12 05:40:37;;;;;;;;;0.00;0.00;;;;;10.67;100.00;100052.97;5074996;28;75253;-81
2024/02/12 05:43:03;;;;;;;;;0.00;0.00;;;;;10.67;100.00;100059.03;5075870;28;45378;-81
2024/02/12 05:45:28;;;;;;;;;0.00;0.00;;;;;10.68;100.00;100052.06;5076119;28;45389;-81
2024/02/12 05:47:53;;;;;;;;;0.00;0.00;;;;;10.67;100.00;100051.22;5075396;27;68055;-81
2024/02/12 05:50:19;;;;;;;;;0.00;0.00;;;;;10.68;100.00;100057.25;5074465;28;45358;-81
2024/02/12 05:52:46;;;;;;;;;0.00;0.00;;;;;10.67;100.00;100060.78;5075662;28;45417;-81
2024/02/12 05:55:11;;;;;;;;;0.00;0.00;;;;;10.69;100.00;100061.56;5074952;28;45360;-81
2024/02/12 05:57:37;;;;;;;;;0.00;0.00;;;;;10.74;100.00;100063.09;5075518;28;53491;-81
2024/02/12 06:00:02;;;;;;;;;0.00;0.00;;;;;10.70;100.00;100061.53;5075007;28;75380;-81
2024/02/12 06:02:28;;;;;;;;;0.00;0.00;;;;;10.71;100.00;100065.81;5075819;27;45396;-81
2024/02/12 06:04:53;;;;;;;;;0.00;0.00;;;;;10.72;100.00;100069.28;5076007;28;45359;-81
2024/02/12 06:07:18;;;;;;;;;0.00;0.00;;;;;10.81;100.00;100067.13;5073208;28;68409;-81
2024/02/12 06:09:44;;;;;;;;;0.00;0.00;;;;;10.83;100.00;100065.31;5074950;28;75437;-81
2024/02/12 06:12:09;;;;;;;;;0.00;0.00;;;;;10.84;100.00;100063.56;5078155;27;73103;-81
2024/02/12 06:14:35;;;;;;;;;0.00;0.00;;;;;10.83;100.00;100065.31;5078092;28;45400;-81
2024/02/12 06:17:01;;;;;;;;;0.00;0.00;;;;;10.81;100.00;100061.94;5079233;27;45493;-81
2024/02/12 06:19:26;;;;;;;;;0.00;0.00;;;;;10.84;100.00;100071.38;5078149;27;74331;-81
2024/02/12 06:21:51;;;;;;;;;0.00;0.00;;;;;10.85;100.00;100067.88;5078666;27;45511;-81
2024/02/12 06:24:17;;;;;;;;;0.00;0.00;;;;;10.84;100.00;100072.19;5077900;27;69156;-81
2024/02/12 06:26:45;;;;;;;;;0.00;0.00;;;;;10.82;100.00;100075.78;5077965;27;69485;-81
2024/02/12 06:29:11;;;;;;;;;0.00;0.00;;;;;10.80;100.00;100075.84;5078863;28;47450;-81
2024/02/12 06:31:42;;;;;;;;;0.00;0.00;;;;;10.80;100.00;100078.44;5078914;27;45283;-81
2024/02/12 06:34:08;;;;;;;;;0.00;0.00;;;;;10.78;100.00;100075.06;5079176;28;45369;-81
2024/02/12 06:36:33;;;;;;;;;0.00;0.00;;;;;10.78;100.00;100076.81;5080693;28;68664;-81
2024/02/12 06:38:58;;;;;;;;;0.00;0.00;;;;;10.77;100.00;100077.72;5077550;28;75939;-81
2024/02/12 06:41:25;;;;;;;;;0.00;0.00;;;;;10.75;100.00;100082.16;5078308;27;70250;-81
2024/02/12 06:43:51;;;;;;;;;0.00;0.00;;;;;10.74;100.00;100086.50;5078317;28;45365;-81
2024/02/12 06:46:16;;;;;;;;;0.00;0.00;;;;;10.74;100.00;100088.28;5078922;28;45417;-81
2024/02/12 06:48:41;;;;;;;;;0.00;0.00;;;;;10.73;100.00;100095.22;5078851;28;46189;-81
2024/02/12 06:51:10;;;;;;;;;0.00;0.00;;;;;10.73;100.00;100097.81;5078336;27;45498;-81
2024/02/12 06:53:36;;;;;;;;;0.00;0.00;;;;;10.74;100.00;100099.53;5077777;28;45471;-81
2024/02/12 06:56:03;;;;;;;;;0.00;0.00;;;;;10.76;100.00;100102.91;5078864;27;45370;-81
2024/02/12 06:58:29;;;;;;;;;0.00;0.00;;;;;10.78;100.00;100101.09;5078482;27;45797;-81
2024/02/12 07:00:57;;;;;;;;;0.00;0.00;;;;;10.78;100.00;100108.06;5078521;28;45353;-81
2024/02/12 07:03:22;;;;;;;;;0.00;0.00;;;;;10.79;100.00;100110.63;5077464;28;45360;-81
2024/02/12 07:05:48;;;;;;;;;0.00;0.00;;;;;10.78;100.00;100115.88;5078366;28;45368;-80
2024/02/12 07:08:15;;;;;;;;;0.00;0.00;;;;;10.75;100.00;100116.81;5077196;28;45570;-81
2024/02/12 07:10:41;;;;;;;;;0.00;0.00;;;;;10.73;100.00;100115.19;5078376;28;45422;-79
2024/02/12 07:13:06;;;;;;;;;0.00;0.00;;;;;10.72;100.00;100123.94;5078517;28;45260;-81
2024/02/12 07:15:32;;;;;;;;;0.00;0.00;;;;;10.69;100.00;100132.69;5077196;28;45360;-81
2024/02/12 07:17:57;;;;;;;;;0.00;0.00;;;;;10.64;100.00;100125.09;5076300;28;63427;-81
2024/02/12 07:20:23;;;;;;;;;0.00;0.00;;;;;10.64;100.00;100135.50;5077352;28;61995;-81
2024/02/12 07:22:48;;;;;;;;;0.00;0.00;;;;;10.63;100.00;100139.00;5077919;27;45293;-81
2024/02/12 07:25:14;;;;;;;;;0.00;0.00;;;;;10.64;100.00;100151.09;5078053;27;45326;-81
2024/02/12 07:27:39;;;;;;;;;0.00;0.00;;;;;10.65;100.00;100144.97;5078103;28;46066;-81
2024/02/12 07:30:07;;;;;;;;;0.00;0.00;;;;;10.70;100.00;100147.41;5078076;27;45421;-81
2024/02/12 07:32:34;;;;;;;;;0.00;0.00;;;;;10.76;100.00;100156.75;5078097;27;45396;-81
2024/02/12 07:34:59;;;;;;;;;0.00;0.00;;;;;10.81;100.00;100157.41;5077876;28;45434;-81
2024/02/12 07:37:25;;;;;;;;;0.00;0.00;;;;;10.85;100.00;100164.19;5058611;28;73334;-81
2024/02/12 07:39:51;;;;;;;;;0.00;0.00;;;;;10.89;100.00;100157.13;5077821;27;45417;-82
2024/02/12 07:42:17;;;;;;;;;0.00;0.00;;;;;10.93;100.00;100171.69;5077969;27;45385;-81
2024/02/12 07:44:42;;;;;;;;;0.00;0.00;;;;;10.96;100.00;100175.03;5077860;27;45424;-81
2024/02/12 07:47:10;;;;;;;;;0.00;0.00;;;;;10.99;100.00;100184.47;5077678;27;45345;-81
2024/02/12 07:49:35;;;;;;;;;0.00;0.00;;;;;11.03;100.00;100176.50;5077213;27;45492;-80
2024/02/12 07:52:01;;;;;;;;;0.00;0.00;;;;;11.09;100.00;100191.03;5076833;28;69236;-81
2024/02/12 07:54:28;;;;;;;;;0.00;0.00;;;;;11.13;100.00;100196.97;5077690;28;45397;-81
2024/02/12 07:56:54;;;;;;;;;0.00;0.00;;;;;11.16;100.00;100192.47;5076213;28;45381;-80
2024/02/12 07:59:20;;;;;;;;;0.00;0.00;;;;;11.21;100.00;100198.34;5077463;27;45286;-81
2024/02/12 08:01:45;;;;;;;;;0.00;0.00;;;;;11.24;100.00;100205.19;5076423;27;45378;-81
2024/02/12 08:04:10;;;;;;;;;0.00;0.00;;;;;11.27;100.00;100202.44;5077235;28;45332;-80
2024/02/12 08:06:36;;;;;;;;;0.00;0.00;;;;;11.24;100.00;100207.81;5076160;28;75882;-81
2024/02/12 08:09:01;;;;;;;;;0.00;0.00;;;;;11.26;100.00;100211.19;5077436;27;45335;-81
2024/02/12 08:11:27;;;;;;;;;0.00;0.00;;;;;11.23;100.00;100211.31;5077771;28;45429;-80
2024/02/12 08:13:52;;;;;;;;;0.00;0.00;;;;;11.22;100.00;100217.44;5077859;28;69340;-81
2024/02/12 08:16:17;;;;;;;;;0.00;0.00;;;;;11.16;100.00;100221.13;5076985;28;45427;-80
2024/02/12 08:18:43;;;;;;;;;0.00;0.00;;;;;11.17;100.00;100224.59;5077443;28;45392;-81
2024/02/12 08:21:08;;;;;;;;;0.00;0.00;;;;;11.15;100.00;100223.78;5076672;28;68305;-80
2024/02/12 08:23:34;;;;;;;;;0.00;0.00;;;;;11.15;100.00;100234.22;5076685;27;53955;-80
2024/02/12 08:26:00;;;;;;;;;0.00;0.00;;;;;11.17;100.00;100235.00;5077449;27;45972;-80
2024/02/12 08:28:25;;;;;;;;;0.00;0.00;;;;;11.16;100.00;100235.91;5077104;27;52002;-80
2024/02/12 08:30:51;;;;;;;;;0.00;0.00;;;;;11.19;100.00;100241.00;5076452;27;66476;-79
2024/02/12 08:33:16;;;;;;;;;0.00;0.00;;;;;11.18;100.00;100241.88;5076258;28;45439;-80
2024/02/12 08:35:41;;;;;;;;;0.00;0.00;;;;;11.23;100.00;100252.97;5077026;27;46962;-80
2024/02/12 08:38:09;;;;;;;;;0.00;0.00;;;;;11.33;100.00;100246.50;5077096;28;45352;-80
2024/02/12 08:40:35;;;;;;;;;0.00;0.00;;;;;11.44;100.00;100251.31;5077048;27;45389;-80
2024/02/12 08:43:00;;;;;;;;;0.00;0.00;;;;;11.58;100.00;100250.72;5077114;28;45299;-80
2024/02/12 08:45:25;;;;;;;;;0.00;0.00;;;;;11.75;100.00;100253.47;5075738;28;75673;-80
2024/02/12 08:47:51;;;;;;;;;0.00;0.00;;;;;11.91;100.00;100260.72;5074474;28;65334;-80
2024/02/12 08:50:16;;;;;;;;;0.00;0.00;;;;;12.00;100.00;100261.16;5076743;28;45431;-80
2024/02/12 08:52:42;;;;;;;;;0.00;0.00;;;;;12.13;100.00;100266.72;5076825;28;45391;-80
2024/02/12 08:55:10;;;;;;;;;0.00;0.00;;;;;12.24;100.00;100266.25;5076520;28;50097;-80
2024/02/12 08:57:37;;;;;;;;;0.00;0.00;;;;;12.30;100.00;100271.19;5076566;28;45374;-79
2024/02/12 09:00:04;;;;;;;;;0.00;0.00;;;;;12.35;100.00;100274.47;5075077;28;45389;-80
2024/02/12 09:02:29;;;;;;;;;0.00;0.00;;;;;12.41;100.00;100278.56;5076653;28;45177;-80
2024/02/12 09:04:55;;;;;;;;;0.00;0.00;;;;;12.43;100.00;100287.19;5075409;28;74552;-80
2024/02/12 09:07:21;;;;;;;;;0.00;0.00;;;;;12.50;100.00;100283.38;5075984;28;49946;-80
2024/02/12 09:09:49;;;;;;;;;0.00;0.00;;;;;12.51;100.00;100294.66;5076591;27;45324;-80
2024/02/12 09:12:14;;;;;;;;;0.00;0.00;;;;;12.50;100.00;100295.56;5075317;28;45452;-80
2024/02/12 09:14:40;;;;;;;;;0.00;0.00;;;;;12.48;100.00;100287.81;5075198;28;75382;-80
2024/02/12 09:17:05;;;;;;;;;0.00;0.00;;;;;12.48;100.00;100300.88;5074160;28;73066;-79
2024/02/12 09:19:32;;;;;;;;;0.00;0.00;;;;;12.48;100.00;100300.88;5075427;27;65664;-80
2024/02/12 09:21:57;;;;;;;;;0.00;0.00;;;;;12.50;100.00;100300.78;5076375;27;45527;-80
2024/02/12 09:24:22;;;;;;;;;0.00;0.00;;;;;12.51;100.00;100305.09;5074960;27;73399;-80
2024/02/12 09:26:48;;;;;;;;;0.00;0.00;;;;;12.53;100.00;100306.72;5075913;27;47221;-80
2024/02/12 09:29:13;;;;;;;;;0.00;0.00;;;;;12.57;100.00;100300.47;5073566;28;69099;-80
2024/02/12 09:31:39;;;;;;;;;0.00;0.00;;;;;12.59;100.00;100311.69;5073815;28;70446;-80
2024/02/12 09:34:05;;;;;;;;;0.00;0.00;;;;;12.63;100.00;100311.53;5075956;28;45447;-80
2024/02/12 09:36:30;;;;;;;;;0.00;0.00;;;;;12.70;100.00;100315.59;5074945;28;45435;-80
2024/02/12 09:38:56;;;;;;;;;0.00;0.00;;;;;12.84;100.00;100328.88;5076165;27;45216;-80
2024/02/12 09:41:26;;;;;;;;;0.00;0.00;;;;;13.01;100.00;100328.09;5075105;27;70651;-80
2024/02/12 09:43:52;;;;;;;;;0.00;0.00;;;;;13.20;100.00;100325.50;5074162;28;45685;-80
2024/02/12 09:46:19;;;;;;;;;0.00;0.00;;;;;13.36;100.00;100326.50;5077482;28;45485;-80
2024/02/12 09:48:44;;;;;;;;;0.00;0.00;;;;;13.50;100.00;100336.34;5078773;28;69481;-80
2024/02/12 09:51:12;;;;;;;;;0.00;0.00;;;;;13.55;100.00;100336.09;5083660;27;65613;-80
2024/02/12 09:53:41;;;;;;;;;0.00;0.00;;;;;13.62;100.00;100341.91;5078886;28;45356;-80
2024/02/12 09:56:07;;;;;;;;;0.00;0.00;;;;;13.66;100.00;100351.28;5079362;28;45459;-80
2024/02/12 09:58:33;;;;;;;;;0.00;0.00;;;;;13.72;100.00;100349.22;5078972;28;56351;-80
2024/02/12 10:01:01;;;;;;;;;0.00;0.00;;;;;13.81;100.00;100352.31;5079575;27;45336;-80
2024/02/12 10:03:28;;;;;;;;;0.00;0.00;;;;;13.83;100.00;100347.84;5077988;28;45487;-80
2024/02/12 10:05:53;;;;;;;;;0.00;0.00;;;;;13.83;100.00;100353.09;5078245;28;45260;-80
2024/02/12 10:08:20;;;;;;;;;0.00;0.00;;;;;13.87;100.00;100354.63;5078224;28;45300;-80
2024/02/12 10:10:46;;;;;;;;;0.00;0.00;;;;;13.90;100.00;100357.94;5078284;28;45405;-80
2024/02/12 10:13:11;;;;;;;;;0.00;0.00;;;;;13.97;100.00;100352.41;5077752;28;46221;-80
2024/02/12 10:15:38;;;;;;;;;0.00;0.00;;;;;14.00;100.00;100353.09;5079098;28;45448;-80
2024/02/12 10:18:04;;;;;;;;;0.00;0.00;;;;;14.05;100.00;100366.81;5079400;28;45485;-80
2024/02/12 10:20:29;;;;;;;;;0.00;0.00;;;;;14.21;100.00;100372.13;5079117;28;45477;-80
2024/02/12 10:22:55;;;;;;;;;0.00;0.00;;;;;14.39;100.00;100378.19;5078917;27;45430;-80
2024/02/12 10:25:21;;;;;;;;;0.00;0.00;;;;;14.52;100.00;100379.31;5077763;27;72439;-80
2024/02/12 10:27:46;;;;;;;;;0.00;0.00;;;;;14.58;100.00;100379.91;5078738;28;45224;-80
2024/02/12 10:30:15;;;;;;;;;0.00;0.00;;;;;14.60;100.00;100388.53;5078216;28;70018;-81
2024/02/12 10:32:46;;;;;;;;;0.00;0.00;;;;;14.63;100.00;100385.78;5078752;28;45374;-80
2024/02/12 10:35:12;;;;;;;;;0.00;0.00;;;;;14.65;100.00;100391.78;5078660;28;48721;-80
2024/02/12 10:37:38;;;;;;;;;4.00;4.00;;;;;14.72;100.00;100387.91;5077738;28;45329;-80
2024/02/12 10:40:12;;;;;;;;;0.00;0.00;;;;;14.84;100.00;100395.16;5077691;28;45415;-81
2024/02/12 10:42:50;;;;;;;;;0.00;0.00;;;;;15.03;100.00;100389.78;5077040;28;45661;-80
2024/02/12 10:45:17;;;;;;;;;0.00;0.00;;;;;15.22;100.00;100394.88;5078520;28;45281;-80
2024/02/12 10:47:43;;;;;;;;;0.00;0.00;;;;;15.42;100.00;100399.06;5077647;28;45293;-80
2024/02/12 10:50:13;;;;;;;;;0.00;0.00;;;;;15.57;100.00;100401.78;5078451;28;45399;-81
2024/02/12 10:52:41;;;;;;;;;0.00;0.00;;;;;15.76;100.00;100404.25;5077213;28;46384;-80
2024/02/12 10:55:09;;;;;;;;;0.00;0.00;;;;;15.82;100.00;100401.28;5077425;28;45448;-81
2024/02/12 10:57:43;;;;;;;;;6.00;6.00;;;;;15.86;100.00;100402.78;5076586;28;45412;-80
2024/02/12 11:00:19;;;;;;;;;0.00;0.00;;;;;15.82;100.00;100403.91;5077320;28;45303;-80
2024/02/12 11:02:45;;;;;;;;;1.00;1.00;;;;;15.74;100.00;100416.63;5078353;27;46064;-80
2024/02/12 11:05:13;;;;;;;;;0.00;0.00;;;;;15.75;100.00;100419.16;5078312;28;45352;-80
2024/02/12 11:07:45;;;;;;;;;0.00;0.00;;;;;15.81;100.00;100418.81;5077142;28;45354;-80
2024/02/12 11:10:17;;;;;;;;;0.00;0.00;;;;;15.90;100.00;100422.72;5078451;27;45292;-81
2024/02/12 11:12:45;;;;;;;;;0.00;0.00;;;;;16.10;100.00;100429.44;5076766;28;46142;-81
2024/02/12 11:15:19;;;;;;;;;0.00;0.00;;;;;16.45;100.00;100430.06;5078261;28;45449;-80
2024/02/12 11:17:44;;;;;;;;;0.00;0.00;;;;;16.73;100.00;100436.28;5077246;28;45419;-80
2024/02/12 11:20:20;;;;;;;;;0.00;0.00;;;;;16.97;100.00;100434.00;5077317;27;64351;-81
2024/02/12 11:22:47;;;;;;;;;0.00;0.00;;;;;17.16;100.00;100433.75;5076460;27;46681;-80
2024/02/12 11:25:17;;;;;;;;;0.00;0.00;;;;;17.12;100.00;100436.66;5076006;27;45401;-81
2024/02/12 11:27:52;;;;;;;;;0.00;0.00;;;;;17.02;100.00;100433.75;5083475;28;45301;-80
2024/02/12 11:30:19;;;;;;;;;0.00;0.00;;;;;17.04;100.00;100434.50;5079332;27;45345;-80